Time;durP1;ratioP1;P1;durP2;ratioP2;P2;SDS_P1;SDS_P2;PMS_P1;PMS_P2;Temp;Humidity;BMP_temperature;BMP_pressure;BME280_temperature;BME280_humidity;BME280_pressure;Samples;Min_cycle;Max_cycle;Signal;HPM_P1;HPM_P2
2022/01/24 00:00:42;;;;;;;1.02;0.60;;;;;;;;;;4993439;28;20050;-96
2022/01/24 00:03:23;;;;;;;2.63;0.50;;;;;;;;;;5011927;28;20071;-96
2022/01/24 00:05:49;;;;;;;1.10;0.50;;;;;;;;;;4996319;28;20496;-96
2022/01/24 00:08:39;;;;;;;1.33;0.73;;;;;;;;;;4997193;28;20026;-96
2022/01/24 00:11:40;;;;;;;1.80;0.80;;;;;;;;;;5008888;28;20031;-96
2022/01/24 00:28:02;;;;;;;0.70;0.55;;;;;;;;;;5002544;28;20037;-96
2022/01/24 00:30:30;;;;;;;1.55;0.70;;;;;;;;;;5000507;28;20073;-96
2022/01/24 00:32:56;;;;;;;1.27;0.50;;;;;;;;;;5009810;23;20086;-75
2022/01/24 00:35:23;;;;;;;1.23;0.70;;;;;;;;;;4986906;28;20038;-75
2022/01/24 00:37:49;;;;;;;1.92;0.80;;;;;;;;;;4987518;28;20022;-75
2022/01/24 00:40:15;;;;;;;1.52;0.70;;;;;;;;;;4987523;28;20084;-75
2022/01/24 00:42:56;;;;;;;1.48;0.70;;;;;;;;;;4987025;28;20038;-74
2022/01/24 00:55:39;;;;;;;2.20;0.80;;;;;;;;;;4969353;28;20035;-76
2022/01/24 00:58:05;;;;;;;4.00;0.70;;;;;;;;;;4968387;28;20034;-75
2022/01/24 01:00:31;;;;;;;1.00;0.70;;;;;;;;;;4968077;28;20423;-75
2022/01/24 01:02:58;;;;;;;3.55;0.90;;;;;;;;;;4972916;28;20038;-75
2022/01/24 01:05:44;;;;;;;1.23;0.65;;;;;;;;;;4968496;28;20030;-75
2022/01/24 01:18:51;;;;;;;3.70;1.05;;;;;;;;;;4967943;28;20426;-75
2022/01/24 01:21:18;;;;;;;1.48;0.90;;;;;;;;;;4970520;28;20492;-75
2022/01/24 01:23:51;;;;;;;6.00;0.85;;;;;;;;;;4969865;28;20027;-75
2022/01/24 01:28:46;;;;;;;2.53;0.98;;;;;;;;;;4968556;28;20034;-74
2022/01/24 01:31:24;;;;;;;2.90;1.10;;;;;;;;;;4970003;28;20136;-80
2022/01/24 01:55:53;;;;;;;1.90;0.90;;;;;;;;;;4969672;28;20101;-77
2022/01/24 01:58:21;;;;;;;1.65;0.98;;;;;;;;;;4969802;28;20022;-76
2022/01/24 02:00:49;;;;;;;1.92;1.33;;;;;;;;;;4968169;28;20023;-75
2022/01/24 02:03:15;;;;;;;2.28;0.90;;;;;;;;;;4969329;28;20065;-77
2022/01/24 02:05:42;;;;;;;1.50;0.93;;;;;;;;;;4976514;28;20030;-76
2022/01/24 02:08:08;;;;;;;3.00;1.00;;;;;;;;;;4969301;28;20026;-76
2022/01/24 02:10:37;;;;;;;2.65;1.00;;;;;;;;;;4968809;28;20038;-75
2022/01/24 02:13:03;;;;;;;2.13;0.80;;;;;;;;;;4968696;28;20078;-76
2022/01/24 02:15:55;;;;;;;2.05;0.90;;;;;;;;;;4968985;28;20122;-76
2022/01/24 02:18:32;;;;;;;2.72;1.20;;;;;;;;;;4969731;28;20034;-77
2022/01/24 02:23:41;;;;;;;2.17;0.80;;;;;;;;;;4968468;28;20030;-77
2022/01/24 02:26:11;;;;;;;2.95;1.00;;;;;;;;;;4969060;28;20272;-76
2022/01/24 02:31:43;;;;;;;1.60;0.93;;;;;;;;;;4926195;28;20501;-79
2022/01/24 02:34:29;;;;;;;3.60;1.00;;;;;;;;;;4967127;28;20043;-76
2022/01/24 02:36:57;;;;;;;2.78;0.70;;;;;;;;;;4969459;28;20038;-76
2022/01/24 02:50:07;;;;;;;5.32;0.93;;;;;;;;;;4968332;28;20081;-79
2022/01/24 02:52:33;;;;;;;3.30;1.00;;;;;;;;;;4968301;28;20250;-76
2022/01/24 02:55:00;;;;;;;1.90;1.10;;;;;;;;;;4968704;28;20047;-76
2022/01/24 02:57:26;;;;;;;1.20;0.70;;;;;;;;;;4974485;28;20054;-76
2022/01/24 02:59:52;;;;;;;2.05;0.95;;;;;;;;;;4970803;28;20027;-78
2022/01/24 03:02:18;;;;;;;2.40;1.08;;;;;;;;;;4968270;28;20038;-76
2022/01/24 03:04:44;;;;;;;2.45;0.90;;;;;;;;;;4968374;28;20057;-78
2022/01/24 03:07:10;;;;;;;1.42;0.77;;;;;;;;;;4966821;28;20035;-76
2022/01/24 03:09:37;;;;;;;1.80;0.80;;;;;;;;;;4968724;28;20069;-77
2022/01/24 03:12:07;;;;;;;2.80;0.95;;;;;;;;;;4967948;28;20183;-76
2022/01/24 03:14:35;;;;;;;3.30;1.10;;;;;;;;;;4966877;28;20407;-76
2022/01/24 03:17:02;;;;;;;2.53;0.85;;;;;;;;;;4968185;28;20027;-76
2022/01/24 03:19:28;;;;;;;3.15;1.00;;;;;;;;;;4979808;28;20074;-79
2022/01/24 03:21:54;;;;;;;3.05;0.90;;;;;;;;;;4965979;28;20038;-76
2022/01/24 03:24:21;;;;;;;5.03;1.20;;;;;;;;;;4967485;28;20042;-80
2022/01/24 03:26:47;;;;;;;1.10;0.70;;;;;;;;;;4966732;28;20026;-76
2022/01/24 03:29:13;;;;;;;3.75;1.23;;;;;;;;;;4970675;28;20030;-76
2022/01/24 03:31:42;;;;;;;3.90;1.00;;;;;;;;;;4967676;28;20109;-75
2022/01/24 03:34:08;;;;;;;1.95;1.10;;;;;;;;;;4967060;28;20081;-76
2022/01/24 03:36:35;;;;;;;3.63;1.45;;;;;;;;;;4967844;28;20034;-75
2022/01/24 03:39:01;;;;;;;1.67;0.80;;;;;;;;;;4967736;28;20026;-76
2022/01/24 03:41:27;;;;;;;1.90;0.90;;;;;;;;;;4967683;28;20483;-76
2022/01/24 03:44:01;;;;;;;4.45;1.35;;;;;;;;;;4975446;28;20062;-76
2022/01/24 03:46:28;;;;;;;2.13;1.08;;;;;;;;;;4966289;28;20062;-80
2022/01/24 03:49:07;;;;;;;2.50;0.90;;;;;;;;;;4966571;28;20441;-76
2022/01/24 03:51:33;;;;;;;1.50;0.73;;;;;;;;;;4967517;28;20027;-76
2022/01/24 03:54:00;;;;;;;3.75;1.40;;;;;;;;;;4967532;28;20541;-76
2022/01/24 03:56:27;;;;;;;5.13;1.30;;;;;;;;;;4967955;28;20665;-76
2022/01/24 03:58:53;;;;;;;1.60;0.90;;;;;;;;;;4966106;28;20386;-77
2022/01/24 04:01:19;;;;;;;9.50;2.72;;;;;;;;;;4971333;28;20022;-76
2022/01/24 04:03:45;;;;;;;7.60;2.20;;;;;;;;;;4966597;28;20037;-76
2022/01/24 04:06:11;;;;;;;3.35;1.10;;;;;;;;;;4966865;28;20058;-77
2022/01/24 04:08:38;;;;;;;1.55;0.90;;;;;;;;;;4965282;28;20043;-76
2022/01/24 04:11:10;;;;;;;2.05;1.00;;;;;;;;;;4966382;28;20526;-77
2022/01/24 04:13:39;;;;;;;;;;;;;;;;;;4967462;28;20097;-75
2022/01/24 04:21:21;;;;;;;2.58;1.10;;;;;;;;;;4965230;28;20085;-77
2022/01/24 04:23:53;;;;;;;2.28;0.90;;;;;;;;;;4966350;28;20603;-76
2022/01/24 04:26:19;;;;;;;2.40;1.15;;;;;;;;;;4966383;28;20087;-76
2022/01/24 04:28:46;;;;;;;2.35;0.88;;;;;;;;;;4966350;28;20094;-77
2022/01/24 04:31:12;;;;;;;5.05;1.63;;;;;;;;;;4966102;28;20456;-76
2022/01/24 04:33:38;;;;;;;2.78;1.40;;;;;;;;;;4964262;28;20124;-75
2022/01/24 04:36:04;;;;;;;14.57;4.63;;;;;;;;;;4965792;28;20034;-76
2022/01/24 04:38:30;;;;;;;5.00;1.50;;;;;;;;;;4966287;28;20023;-76
2022/01/24 04:41:01;;;;;;;4.55;1.05;;;;;;;;;;4965993;28;20031;-76
2022/01/24 04:46:05;;;;;;;1.48;0.73;;;;;;;;;;4966164;28;20537;-76
2022/01/24 04:51:34;;;;;;;4.30;2.17;;;;;;;;;;4965794;28;20458;-76
2022/01/24 04:56:41;;;;;;;2.42;1.55;;;;;;;;;;4965651;28;20060;-76
2022/01/24 04:59:08;;;;;;;2.90;0.95;;;;;;;;;;4964371;28;20042;-77
2022/01/24 05:01:35;;;;;;;2.50;1.00;;;;;;;;;;4972891;28;20097;-76
2022/01/24 05:04:01;;;;;;;2.10;0.75;;;;;;;;;;4964983;28;20103;-78
2022/01/24 05:06:27;;;;;;;3.60;0.82;;;;;;;;;;4965391;28;20027;-76
2022/01/24 05:08:54;;;;;;;4.07;0.73;;;;;;;;;;4964835;28;20087;-77
2022/01/24 05:12:07;;;;;;;1.77;0.70;;;;;;;;;;4972554;28;20027;-76
2022/01/24 05:24:49;;;;;;;1.60;0.68;;;;;;;;;;4965088;28;20023;-76
2022/01/24 05:27:15;;;;;;;4.30;1.50;;;;;;;;;;4964927;28;20027;-78
2022/01/24 05:29:42;;;;;;;5.55;1.30;;;;;;;;;;4964119;28;20050;-75
2022/01/24 05:32:08;;;;;;;3.65;0.88;;;;;;;;;;4964790;28;20495;-77
2022/01/24 05:34:34;;;;;;;2.88;0.70;;;;;;;;;;4971305;28;20050;-75
2022/01/24 05:37:01;;;;;;;3.53;0.88;;;;;;;;;;4965007;28;20089;-77
2022/01/24 05:39:27;;;;;;;2.15;0.93;;;;;;;;;;4964941;28;20052;-77
2022/01/24 05:41:53;;;;;;;2.65;0.82;;;;;;;;;;4965395;28;20265;-76
2022/01/24 05:44:19;;;;;;;3.30;0.90;;;;;;;;;;4963711;28;20531;-76
2022/01/24 05:46:45;;;;;;;4.45;1.13;;;;;;;;;;4964747;28;20039;-77
2022/01/24 05:49:11;;;;;;;2.63;0.85;;;;;;;;;;4964885;28;20058;-76
2022/01/24 05:51:38;;;;;;;1.10;0.90;;;;;;;;;;4964973;28;20039;-76
2022/01/24 05:54:04;;;;;;;3.03;1.20;;;;;;;;;;4965007;28;20824;-76
2022/01/24 05:56:30;;;;;;;1.63;0.80;;;;;;;;;;4962557;28;20039;-78
2022/01/24 05:58:56;;;;;;;2.72;0.70;;;;;;;;;;4961362;28;20031;-77
2022/01/24 06:01:22;;;;;;;2.25;0.80;;;;;;;;;;4962616;28;20102;-76
2022/01/24 06:03:49;;;;;;;1.45;0.80;;;;;;;;;;4962647;28;20042;-76
2022/01/24 06:06:15;;;;;;;3.30;0.80;;;;;;;;;;4962365;28;20085;-76
2022/01/24 06:08:41;;;;;;;2.15;1.35;;;;;;;;;;4960851;28;20122;-76
2022/01/24 06:11:07;;;;;;;1.00;0.70;;;;;;;;;;4966208;28;20026;-76
2022/01/24 06:13:33;;;;;;;1.40;0.77;;;;;;;;;;4966080;28;20038;-76
2022/01/24 06:15:59;;;;;;;3.22;0.93;;;;;;;;;;4969154;28;20066;-79
2022/01/24 06:18:25;;;;;;;2.25;0.90;;;;;;;;;;4962020;28;20573;-77
2022/01/24 06:20:53;;;;;;;2.38;0.90;;;;;;;;;;4962099;28;20843;-77
2022/01/24 06:23:19;;;;;;;2.00;1.00;;;;;;;;;;4959611;28;20389;-76
2022/01/24 06:25:46;;;;;;;2.38;0.95;;;;;;;;;;4962149;28;20089;-76
2022/01/24 06:28:12;;;;;;;1.25;0.80;;;;;;;;;;4961980;28;20101;-76
2022/01/24 06:30:38;;;;;;;1.90;1.13;;;;;;;;;;4961760;28;20826;-76
2022/01/24 06:33:04;;;;;;;1.20;0.82;;;;;;;;;;4961257;28;20507;-77
2022/01/24 06:35:30;;;;;;;2.28;0.70;;;;;;;;;;4960841;28;20094;-78
2022/01/24 06:37:57;;;;;;;1.17;0.95;;;;;;;;;;4961681;28;20034;-76
2022/01/24 06:40:23;;;;;;;1.52;0.95;;;;;;;;;;4962813;28;20031;-77
2022/01/24 06:42:49;;;;;;;4.80;1.08;;;;;;;;;;4961209;28;20023;-77
2022/01/24 06:45:15;;;;;;;3.83;0.90;;;;;;;;;;4961295;28;20105;-76
2022/01/24 06:47:42;;;;;;;2.33;0.98;;;;;;;;;;4962521;28;20386;-77
2022/01/24 06:50:08;;;;;;;1.70;0.80;;;;;;;;;;4960270;28;20122;-77
2022/01/24 06:52:35;;;;;;;1.55;0.90;;;;;;;;;;4961571;28;20037;-76
2022/01/24 06:55:16;;;;;;;3.10;0.90;;;;;;;;;;5096326;27;21093;-76
2022/01/24 06:57:42;;;;;;;1.48;1.10;;;;;;;;;;5088515;28;20022;-76
2022/01/24 07:00:09;;;;;;;2.85;1.17;;;;;;;;;;5085597;28;20173;-76
2022/01/24 07:02:35;;;;;;;2.40;1.00;;;;;;;;;;5084966;28;20605;-77
2022/01/24 07:05:02;;;;;;;2.70;1.10;;;;;;;;;;5082667;28;20035;-77
2022/01/24 07:07:30;;;;;;;3.08;1.20;;;;;;;;;;5086448;28;20093;-76
2022/01/24 07:09:56;;;;;;;3.33;1.20;;;;;;;;;;5086388;28;20024;-77
2022/01/24 07:12:24;;;;;;;7.53;3.60;;;;;;;;;;5088288;28;20398;-78
2022/01/24 07:14:50;;;;;;;4.40;2.30;;;;;;;;;;5087775;28;20430;-76
2022/01/24 07:19:52;;;;;;;3.42;1.63;;;;;;;;;;5077986;28;20428;-79
2022/01/24 07:22:18;;;;;;;2.42;1.42;;;;;;;;;;5078068;28;20036;-78
2022/01/24 07:24:44;;;;;;;2.95;1.67;;;;;;;;;;5084631;28;20024;-77
2022/01/24 07:27:10;;;;;;;3.17;1.40;;;;;;;;;;5086321;28;20754;-78
2022/01/24 07:29:36;;;;;;;3.45;1.70;;;;;;;;;;5088066;28;20119;-78
2022/01/24 07:32:03;;;;;;;5.40;2.17;;;;;;;;;;5081201;28;20028;-78
2022/01/24 07:34:29;;;;;;;2.25;1.40;;;;;;;;;;5078843;28;20040;-77
2022/01/24 07:36:55;;;;;;;2.97;1.73;;;;;;;;;;5078405;28;20077;-78
2022/01/24 07:39:22;;;;;;;4.45;1.90;;;;;;;;;;5086169;28;20051;-79
2022/01/24 07:41:48;;;;;;;3.10;1.63;;;;;;;;;;5084832;28;20026;-78
2022/01/24 07:44:20;;;;;;;4.50;2.55;;;;;;;;;;5080257;28;20779;-79
2022/01/24 07:46:46;;;;;;;3.92;1.80;;;;;;;;;;5081978;28;20040;-78
2022/01/24 07:49:12;;;;;;;3.58;1.60;;;;;;;;;;5086963;28;20023;-78
2022/01/24 07:51:39;;;;;;;4.55;1.73;;;;;;;;;;5059071;28;20029;-77
2022/01/24 07:54:05;;;;;;;2.97;1.67;;;;;;;;;;5060819;28;20053;-76
2022/01/24 07:56:31;;;;;;;2.90;1.70;;;;;;;;;;5062382;28;20619;-77
2022/01/24 07:58:58;;;;;;;6.38;1.80;;;;;;;;;;5058734;28;20119;-74
2022/01/24 08:01:24;;;;;;;2.28;1.55;;;;;;;;;;5064844;28;20028;-74
2022/01/24 08:03:51;;;;;;;4.50;2.70;;;;;;;;;;5054670;28;20090;-74
2022/01/24 08:06:18;;;;;;;4.85;2.28;;;;;;;;;;5050617;28;20040;-74
2022/01/24 08:08:44;;;;;;;4.50;1.95;;;;;;;;;;5049792;28;20040;-74
2022/01/24 08:11:11;;;;;;;5.88;2.08;;;;;;;;;;5038072;28;20489;-74
2022/01/24 08:13:38;;;;;;;2.78;1.50;;;;;;;;;;5041205;28;20516;-75
2022/01/24 08:16:04;;;;;;;7.65;2.08;;;;;;;;;;5052341;28;20082;-76
2022/01/24 08:18:30;;;;;;;3.22;2.10;;;;;;;;;;5049682;28;20033;-74
2022/01/24 08:20:56;;;;;;;3.30;1.73;;;;;;;;;;5049620;28;20047;-76
2022/01/24 08:23:23;;;;;;;4.57;2.40;;;;;;;;;;5049078;28;20025;-75
2022/01/24 08:25:49;;;;;;;3.80;2.40;;;;;;;;;;5064071;28;20110;-75
2022/01/24 08:28:15;;;;;;;5.75;2.67;;;;;;;;;;5046296;28;20039;-76
2022/01/24 08:30:41;;;;;;;4.00;1.80;;;;;;;;;;5041645;28;20029;-76
2022/01/24 08:33:07;;;;;;;3.53;2.08;;;;;;;;;;5045559;28;20746;-75
2022/01/24 08:38:09;;;;;;;4.20;2.80;;;;;;;;;;4838328;23;20783;-80
2022/01/24 08:40:38;;;;;;;3.70;2.10;;;;;;;;;;4977334;28;20054;-75
2022/01/24 08:43:06;;;;;;;3.42;2.65;;;;;;;;;;4982010;28;20046;-76
2022/01/24 08:48:13;;;;;;;3.95;1.92;;;;;;;;;;4975541;28;20109;-80
2022/01/24 08:50:40;;;;;;;2.85;1.90;;;;;;;;;;4977976;28;20030;-75
2022/01/24 08:53:06;;;;;;;3.33;1.70;;;;;;;;;;4979052;28;20057;-76
2022/01/24 08:55:34;;;;;;;4.43;2.13;;;;;;;;;;4981862;28;20019;-79
2022/01/24 08:58:01;;;;;;;2.72;1.88;;;;;;;;;;4980028;28;20121;-78
2022/01/24 09:00:28;;;;;;;6.70;2.47;;;;;;;;;;4981918;28;20497;-78
2022/01/24 09:02:54;;;;;;;4.30;2.05;;;;;;;;;;4980013;28;20045;-76
2022/01/24 09:05:24;;;;;;;3.83;2.22;;;;;;;;;;4982256;28;20068;-76
2022/01/24 09:07:52;;;;;;;3.80;2.10;;;;;;;;;;4978009;28;20059;-78
2022/01/24 09:10:18;;;;;;;6.68;2.50;;;;;;;;;;4974290;28;20031;-79
2022/01/24 09:12:44;;;;;;;4.05;2.00;;;;;;;;;;4978435;28;20061;-79
2022/01/24 09:15:11;;;;;;;4.78;2.22;;;;;;;;;;4981707;28;20114;-82
2022/01/24 09:17:37;;;;;;;6.75;3.00;;;;;;;;;;4980619;28;20084;-80
2022/01/24 09:20:04;;;;;;;5.80;2.95;;;;;;;;;;4979817;28;20082;-81
2022/01/24 09:22:33;;;;;;;9.18;3.65;;;;;;;;;;4981079;28;20038;-76
2022/01/24 09:24:59;;;;;;;4.90;2.70;;;;;;;;;;4981135;28;20132;-75
2022/01/24 09:27:26;;;;;;;7.07;3.10;;;;;;;;;;4980200;28;20422;-80
2022/01/24 09:29:52;;;;;;;5.80;2.58;;;;;;;;;;4980107;28;20026;-77
2022/01/24 09:32:18;;;;;;;6.55;2.63;;;;;;;;;;4979324;28;20367;-78
2022/01/24 09:34:44;;;;;;;5.68;3.28;;;;;;;;;;4981459;28;20030;-76
2022/01/24 09:37:10;;;;;;;6.70;2.80;;;;;;;;;;4989081;28;20132;-76
2022/01/24 09:39:37;;;;;;;6.57;3.03;;;;;;;;;;5000847;28;20053;-79
2022/01/24 09:42:03;;;;;;;6.10;2.50;;;;;;;;;;5000080;28;20502;-81
2022/01/24 09:44:29;;;;;;;5.75;2.53;;;;;;;;;;5000217;28;20654;-78
2022/01/24 09:46:55;;;;;;;5.40;2.10;;;;;;;;;;4997514;28;20616;-77
2022/01/24 09:49:21;;;;;;;5.80;2.80;;;;;;;;;;5001404;28;20807;-78
2022/01/24 09:51:47;;;;;;;5.13;2.75;;;;;;;;;;5000857;28;20036;-77
2022/01/24 09:54:14;;;;;;;4.03;2.60;;;;;;;;;;4998886;28;20049;-78
2022/01/24 09:56:40;;;;;;;5.38;2.33;;;;;;;;;;4999947;28;20278;-80
2022/01/24 09:59:07;;;;;;;3.97;2.85;;;;;;;;;;4999783;28;20105;-80
2022/01/24 10:01:33;;;;;;;8.55;3.13;;;;;;;;;;5000616;28;20014;-80
2022/01/24 10:04:06;;;;;;;4.78;2.30;;;;;;;;;;4998839;28;20513;-81
2022/01/24 10:06:50;;;;;;;4.88;2.30;;;;;;;;;;4997462;28;20032;-83
2022/01/24 10:09:17;;;;;;;3.88;2.45;;;;;;;;;;4997170;28;20029;-79
2022/01/24 10:12:00;;;;;;;4.20;2.58;;;;;;;;;;4996660;28;20026;-80
2022/01/24 10:17:26;;;;;;;4.43;2.30;;;;;;;;;;4993883;28;20413;-81
2022/01/24 10:19:52;;;;;;;3.92;2.30;;;;;;;;;;4997954;28;20036;-78
2022/01/24 10:22:23;;;;;;;3.75;2.20;;;;;;;;;;4999358;28;20069;-79
2022/01/24 10:24:51;;;;;;;8.77;2.38;;;;;;;;;;4998434;28;20077;-78
2022/01/24 10:27:28;;;;;;;4.50;2.30;;;;;;;;;;4998050;28;20037;-80
2022/01/24 10:30:07;;;;;;;4.18;2.28;;;;;;;;;;4996834;28;20488;-77
2022/01/24 10:32:37;;;;;;;3.33;1.92;;;;;;;;;;4999339;28;20028;-78
2022/01/24 10:35:22;;;;;;;4.97;2.58;;;;;;;;;;4999921;28;20033;-77
2022/01/24 10:37:51;;;;;;;5.32;2.15;;;;;;;;;;4999802;28;20045;-77
2022/01/24 10:40:44;;;;;;;6.68;2.08;;;;;;;;;;5000106;28;20022;-82
2022/01/24 10:43:27;;;;;;;4.03;2.00;;;;;;;;;;4995677;28;20130;-79
2022/01/24 10:45:54;;;;;;;5.35;1.92;;;;;;;;;;4994372;28;20031;-80
2022/01/24 10:48:22;;;;;;;3.40;1.95;;;;;;;;;;4999540;28;20441;-79
2022/01/24 10:50:49;;;;;;;4.82;2.63;;;;;;;;;;4997365;28;20029;-77
2022/01/24 10:53:16;;;;;;;3.38;2.10;;;;;;;;;;4998486;28;20265;-79
2022/01/24 10:55:43;;;;;;;3.10;2.25;;;;;;;;;;4998016;28;20050;-78
2022/01/24 10:58:16;;;;;;;7.07;2.60;;;;;;;;;;4998894;28;20030;-79
2022/01/24 11:00:42;;;;;;;6.55;2.42;;;;;;;;;;4996869;28;20092;-79
2022/01/24 11:03:15;;;;;;;3.85;2.30;;;;;;;;;;4998585;28;20568;-80
2022/01/24 11:05:43;;;;;;;3.45;2.20;;;;;;;;;;4997817;28;20805;-79
2022/01/24 11:08:11;;;;;;;3.85;2.03;;;;;;;;;;4998937;28;20117;-79
2022/01/24 11:10:42;;;;;;;4.47;2.03;;;;;;;;;;4995652;28;20164;-79
2022/01/24 11:13:08;;;;;;;4.45;2.10;;;;;;;;;;4998749;28;20145;-79
2022/01/24 11:15:38;;;;;;;4.18;2.20;;;;;;;;;;4999164;28;20089;-78
2022/01/24 11:18:05;;;;;;;5.75;3.33;;;;;;;;;;4999130;28;20180;-78
2022/01/24 11:20:34;;;;;;;9.85;2.55;;;;;;;;;;4998910;28;20023;-79
2022/01/24 11:23:05;;;;;;;10.43;2.50;;;;;;;;;;4996323;28;20034;-78
2022/01/24 11:25:53;;;;;;;8.27;2.22;;;;;;;;;;4990290;28;20033;-76
2022/01/24 11:28:19;;;;;;;6.28;2.08;;;;;;;;;;4998971;28;20029;-79
2022/01/24 11:31:09;;;;;;;5.20;1.90;;;;;;;;;;4997681;28;20040;-76
2022/01/24 11:33:37;;;;;;;6.63;2.47;;;;;;;;;;4992669;28;20107;-79
2022/01/24 11:36:07;;;;;;;4.45;2.08;;;;;;;;;;4998282;28;20065;-78
2022/01/24 11:38:42;;;;;;;5.18;2.40;;;;;;;;;;4991587;28;20042;-79
2022/01/24 11:41:25;;;;;;;9.43;3.60;;;;;;;;;;5003452;28;20033;-78
2022/01/24 11:43:54;;;;;;;8.70;6.15;;;;;;;;;;5001778;28;20033;-78
2022/01/24 11:46:35;;;;;;;21.50;13.70;;;;;;;;;;5004099;28;20026;-77
2022/01/24 11:49:05;;;;;;;8.98;4.05;;;;;;;;;;5004913;28;20177;-76
2022/01/24 11:51:32;;;;;;;4.78;2.50;;;;;;;;;;5004285;28;20053;-77
2022/01/24 11:53:58;;;;;;;3.92;2.30;;;;;;;;;;5003971;28;20026;-76
2022/01/24 11:56:27;;;;;;;3.97;1.90;;;;;;;;;;4995313;28;20030;-78
2022/01/24 11:59:12;;;;;;;5.68;2.05;;;;;;;;;;5002580;28;20026;-77
2022/01/24 12:01:40;;;;;;;14.07;6.05;;;;;;;;;;4997444;28;20025;-79
2022/01/24 12:04:07;;;;;;;7.88;3.60;;;;;;;;;;5003978;28;20037;-76
2022/01/24 12:06:51;;;;;;;6.43;2.78;;;;;;;;;;5001771;28;20054;-75
2022/01/24 12:09:24;;;;;;;3.58;1.77;;;;;;;;;;5003554;28;20040;-76
2022/01/24 12:11:52;;;;;;;;;;;;;;;;;;5004375;28;20064;-78
2022/01/24 12:14:24;;;;;;;3.50;1.90;;;;;;;;;;5003845;28;19959;-75
2022/01/24 12:16:50;;;;;;;2.60;1.83;;;;;;;;;;5004077;28;20501;-78
2022/01/24 12:19:28;;;;;;;6.70;2.00;;;;;;;;;;5002473;28;20438;-76
2022/01/24 12:21:54;;;;;;;5.65;1.95;;;;;;;;;;4997357;28;20551;-76
2022/01/24 12:24:21;;;;;;;3.33;1.77;;;;;;;;;;5002055;28;20052;-75
2022/01/24 12:26:49;;;;;;;3.78;1.90;;;;;;;;;;5003427;28;20029;-77
2022/01/24 12:29:17;;;;;;;5.60;3.17;;;;;;;;;;5002127;28;20107;-77
2022/01/24 12:31:54;;;;;;;7.68;4.20;;;;;;;;;;4997875;28;20068;-75
2022/01/24 12:34:25;;;;;;;6.90;3.20;;;;;;;;;;5001855;28;20041;-76
2022/01/24 12:37:00;;;;;;;5.35;2.30;;;;;;;;;;4997910;28;20513;-76
2022/01/24 12:39:35;;;;;;;5.18;1.98;;;;;;;;;;4999776;28;20062;-77
2022/01/24 12:42:07;;;;;;;5.55;2.10;;;;;;;;;;5000800;28;20126;-77
2022/01/24 12:47:05;;;;;;;6.00;1.90;;;;;;;;;;5001652;28;20488;-74
2022/01/24 12:49:32;;;;;;;4.88;1.73;;;;;;;;;;5001339;28;20037;-75
2022/01/24 12:52:03;;;;;;;5.50;1.85;;;;;;;;;;4999853;28;20025;-76
2022/01/24 12:54:34;;;;;;;3.67;2.25;;;;;;;;;;4999211;28;20037;-75
2022/01/24 12:57:01;;;;;;;5.40;3.22;;;;;;;;;;5001079;28;20033;-79
2022/01/24 12:59:27;;;;;;;5.35;2.67;;;;;;;;;;5000937;28;20034;-78
2022/01/24 13:01:56;;;;;;;7.75;4.30;;;;;;;;;;4992440;28;20029;-75
2022/01/24 13:04:33;;;;;;;15.20;7.00;;;;;;;;;;4992728;28;20401;-78
2022/01/24 13:06:59;;;;;;;10.90;6.65;;;;;;;;;;4992561;28;20030;-79
2022/01/24 13:09:25;;;;;;;7.25;4.85;;;;;;;;;;4998579;28;20133;-80
2022/01/24 13:11:57;;;;;;;8.10;4.60;;;;;;;;;;4999031;28;20100;-76
2022/01/24 13:14:32;;;;;;;6.18;2.90;;;;;;;;;;4996198;28;20073;-77
2022/01/24 13:25:05;;;;;;;6.55;2.00;;;;;;;;;;4998705;28;20521;-81
2022/01/24 13:27:54;;;;;;;7.50;2.05;;;;;;;;;;5000379;28;20033;-80
2022/01/24 13:30:25;;;;;;;5.97;1.83;;;;;;;;;;4992158;28;20046;-78
2022/01/24 13:32:52;;;;;;;3.97;1.85;;;;;;;;;;4999676;28;20030;-78
2022/01/24 13:35:33;;;;;;;4.65;1.98;;;;;;;;;;4999052;28;20030;-74
2022/01/24 13:38:07;;;;;;;4.72;2.70;;;;;;;;;;4998100;28;20574;-75
2022/01/24 13:41:02;;;;;;;3.55;1.90;;;;;;;;;;5000549;28;20037;-74
2022/01/24 13:43:30;;;;;;;4.47;1.95;;;;;;;;;;4995074;28;20030;-79
2022/01/24 13:45:57;;;;;;;9.63;2.05;;;;;;;;;;4998037;28;20811;-77
2022/01/24 13:48:24;;;;;;;3.38;1.45;;;;;;;;;;4998944;28;20026;-76
2022/01/24 13:50:55;;;;;;;3.15;1.40;;;;;;;;;;5000240;28;20018;-78
2022/01/24 13:53:34;;;;;;;6.63;1.45;;;;;;;;;;5000261;28;20670;-75
2022/01/24 13:56:02;;;;;;;4.00;1.20;;;;;;;;;;4998206;28;20030;-76
2022/01/24 13:58:28;;;;;;;3.15;1.40;;;;;;;;;;4991343;28;20030;-75
2022/01/24 14:00:58;;;;;;;9.63;1.65;;;;;;;;;;4999771;28;20650;-76
2022/01/24 14:03:25;;;;;;;4.20;1.20;;;;;;;;;;4993302;28;20072;-76
2022/01/24 14:06:09;;;;;;;4.45;1.45;;;;;;;;;;4998890;28;20500;-77
2022/01/24 14:08:36;;;;;;;4.18;1.48;;;;;;;;;;4997421;28;20064;-76
2022/01/24 14:11:13;;;;;;;8.20;1.10;;;;;;;;;;4998471;28;20026;-76
2022/01/24 14:13:45;;;;;;;3.97;1.08;;;;;;;;;;4998967;28;20619;-76
2022/01/24 14:16:23;;;;;;;7.93;1.55;;;;;;;;;;4998850;28;20022;-75
2022/01/24 14:19:00;;;;;;;3.50;1.52;;;;;;;;;;4996104;28;20092;-76
2022/01/24 14:21:26;;;;;;;4.45;1.77;;;;;;;;;;4997587;28;20033;-76
2022/01/24 14:26:27;;;;;;;2.85;0.90;;;;;;;;;;4924799;28;20049;-69
2022/01/24 14:29:07;;;;;;;4.50;1.30;;;;;;;;;;5011704;28;20591;-70
2022/01/24 14:31:34;;;;;;;5.07;0.93;;;;;;;;;;5007314;28;20033;-71
2022/01/24 14:34:05;;;;;;;3.72;1.00;;;;;;;;;;5010898;28;20095;-74
2022/01/24 14:36:31;;;;;;;3.78;1.02;;;;;;;;;;5017632;28;20064;-70
2022/01/24 14:39:00;;;;;;;3.03;1.20;;;;;;;;;;5018807;28;20029;-70
2022/01/24 14:41:32;;;;;;;4.63;1.50;;;;;;;;;;5015929;28;20605;-70
2022/01/24 14:46:45;;;;;;;3.78;1.02;;;;;;;;;;5018199;28;20765;-70
2022/01/24 14:49:17;;;;;;;1.90;0.80;;;;;;;;;;5018497;28;20037;-70
2022/01/24 14:51:44;;;;;;;;;;;;;;;;;;5018735;28;20477;-74
2022/01/24 14:54:12;;;;;;;2.35;1.00;;;;;;;;;;5016359;28;19996;-70
2022/01/24 14:56:40;;;;;;;5.90;1.40;;;;;;;;;;5015134;28;20796;-69
2022/01/24 14:59:06;;;;;;;2.65;1.17;;;;;;;;;;5020733;28;20029;-75
2022/01/24 15:01:33;;;;;;;2.40;1.10;;;;;;;;;;5018200;28;20112;-69
2022/01/24 15:03:59;;;;;;;2.58;1.17;;;;;;;;;;5013086;28;20037;-75
2022/01/24 15:06:26;;;;;;;4.88;0.90;;;;;;;;;;5018203;28;20091;-69
2022/01/24 15:08:54;;;;;;;3.42;0.80;;;;;;;;;;5015352;28;20364;-69
2022/01/24 15:11:23;;;;;;;2.47;0.70;;;;;;;;;;5005776;28;20538;-74
2022/01/24 15:14:03;;;;;;;2.58;0.93;;;;;;;;;;5009143;28;20029;-70
2022/01/24 15:27:11;;;;;;;5.68;1.02;;;;;;;;;;5002200;28;20046;-72
2022/01/24 15:29:37;;;;;;;2.05;0.80;;;;;;;;;;5000822;28;20033;-70
2022/01/24 15:32:05;;;;;;;1.88;0.80;;;;;;;;;;5002555;28;20099;-69
2022/01/24 15:34:35;;;;;;;2.97;0.80;;;;;;;;;;5002658;28;20124;-70
2022/01/24 15:37:02;;;;;;;1.92;0.90;;;;;;;;;;5001485;28;20425;-70
2022/01/24 15:39:30;;;;;;;2.75;1.02;;;;;;;;;;5002122;28;20026;-74
2022/01/24 15:42:01;;;;;;;3.85;1.38;;;;;;;;;;5002318;28;21067;-68
2022/01/24 15:49:40;;;;;;;2.25;0.75;;;;;;;;;;4998261;28;20038;-70
2022/01/24 15:52:07;;;;;;;6.78;1.85;;;;;;;;;;5001616;28;20038;-69
2022/01/24 15:54:33;;;;;;;3.28;0.93;;;;;;;;;;5001594;28;20709;-70
2022/01/24 15:59:47;;;;;;;2.58;0.93;;;;;;;;;;4997073;28;20043;-69
2022/01/24 16:02:13;;;;;;;2.38;0.90;;;;;;;;;;5001943;28;20022;-69
2022/01/24 16:04:40;;;;;;;9.55;1.65;;;;;;;;;;5000632;28;20061;-73
2022/01/24 16:07:07;;;;;;;1.90;1.13;;;;;;;;;;5002191;28;20110;-76
2022/01/24 16:09:34;;;;;;;3.20;1.40;;;;;;;;;;5000934;28;20394;-76
2022/01/24 16:12:00;;;;;;;5.70;1.45;;;;;;;;;;5001525;28;20030;-76
2022/01/24 16:14:26;;;;;;;7.97;1.42;;;;;;;;;;4999819;28;20537;-68
2022/01/24 16:16:53;;;;;;;3.97;1.33;;;;;;;;;;5001358;28;20026;-70
2022/01/24 16:19:22;;;;;;;4.75;1.23;;;;;;;;;;5002618;28;20045;-71
2022/01/24 16:27:14;;;;;;;3.70;1.20;;;;;;;;;;4998655;28;20038;-70
2022/01/24 16:29:40;;;;;;;3.33;1.30;;;;;;;;;;4999467;28;20022;-71
2022/01/24 16:32:07;;;;;;;3.50;1.10;;;;;;;;;;5001609;28;20030;-76
2022/01/24 16:34:33;;;;;;;4.57;1.25;;;;;;;;;;5001279;28;20025;-74
2022/01/24 16:37:06;;;;;;;4.05;1.02;;;;;;;;;;5001824;28;20057;-73
2022/01/24 16:39:36;;;;;;;4.97;1.48;;;;;;;;;;5001007;28;20878;-74
2022/01/24 16:42:07;;;;;;;5.07;1.30;;;;;;;;;;5001729;28;20026;-74
2022/01/24 16:47:07;;;;;;;3.88;1.20;;;;;;;;;;5000052;28;20696;-74
2022/01/24 16:49:34;;;;;;;5.25;2.03;;;;;;;;;;5001173;28;20037;-75
2022/01/24 16:52:00;;;;;;;2.28;1.25;;;;;;;;;;4999590;28;20617;-70
2022/01/24 16:54:28;;;;;;;1.85;1.10;;;;;;;;;;5000930;28;20065;-69
2022/01/24 16:56:55;;;;;;;3.80;1.27;;;;;;;;;;4999298;28;20029;-70
2022/01/24 16:59:21;;;;;;;3.65;1.60;;;;;;;;;;5001144;28;20045;-72
2022/01/24 17:01:47;;;;;;;4.40;1.27;;;;;;;;;;4998488;28;20084;-71
2022/01/24 17:04:14;;;;;;;3.15;1.33;;;;;;;;;;5000780;28;20034;-71
2022/01/24 17:06:40;;;;;;;4.82;2.42;;;;;;;;;;5000465;28;20029;-70
2022/01/24 17:09:08;;;;;;;4.43;1.48;;;;;;;;;;5000667;28;20030;-70
2022/01/24 17:11:36;;;;;;;3.03;1.15;;;;;;;;;;4999959;28;20056;-71
2022/01/24 17:14:10;;;;;;;5.80;1.20;;;;;;;;;;4998474;28;20037;-70
2022/01/24 17:16:36;;;;;;;2.03;1.10;;;;;;;;;;4996329;28;20385;-70
2022/01/24 17:19:03;;;;;;;6.97;1.30;;;;;;;;;;5000355;28;20030;-70
2022/01/24 17:21:29;;;;;;;4.75;1.30;;;;;;;;;;4998127;28;20480;-70
2022/01/24 17:23:56;;;;;;;8.23;1.65;;;;;;;;;;4993931;28;20426;-70
2022/01/24 17:26:22;;;;;;;2.80;1.23;;;;;;;;;;4999745;28;20046;-71